Chicago, Illinois
Traffic Map
Current Weather Conditions
Chicago, Illinois
Overcast
Overcast
72°
Feels Like: 72°
Wind Chill: 72° Ceiling: 2700
Heat Index: 72° Visibility: 10mi
Dew Point: 61° Wind: 16mph
Humidity: 68% Direction: 190° (S)
Pressure: 29.91in Gusts: 28mph
Raw Report DataKMDW 221853Z 19014G24KT 10SM OVC027 22/16 A2991 RMK AO2 SLP120 T02220161
Traffic Incident Summary
Active as of:
Severity:
Category:
InformationThere was an issue retrieving the traffic information for this location. Please try a different location or try again shortly.
Advertisements